Time;durP1;ratioP1;P1;durP2;ratioP2;P2;SDS_P1;SDS_P2;PMS_P1;PMS_P2;Temp;Humidity;BMP_temperature;BMP_pressure;BME280_temperature;BME280_humidity;BME280_pressure;Samples;Min_cycle;Max_cycle;Signal;HPM_P1;HPM_P2
2021/05/10 07:44:03;;;;;;;0.93;0.57;;;;;;;20.87;29.82;96347.82;1777653;79;22892;-82
2021/05/10 07:46:40;;;;;;;1.25;0.50;;;;;;;20.91;28.44;96343.11;1818581;78;22355;-82
2021/05/10 07:49:15;;;;;;;1.72;0.80;;;;;;;20.97;27.26;96342.11;1808314;77;22468;-82
2021/05/10 07:51:50;;;;;;;1.98;0.65;;;;;;;21.05;28.91;96356.73;1820800;78;23053;-82
2021/05/10 07:54:27;;;;;;;1.60;0.72;;;;;;;21.15;28.35;96350.24;1782649;78;38463;-81
2021/05/10 07:57:07;;;;;;;2.12;0.62;;;;;;;21.32;27.75;96342.77;1811951;77;22678;-81
2021/05/10 07:59:41;;;;;;;1.20;0.60;;;;;;;21.38;28.63;96355.77;1807539;77;28052;-82
2021/05/10 08:02:20;;;;;;;2.30;0.88;;;;;;;21.47;27.85;96356.89;1798136;77;29265;-82
2021/05/10 08:04:54;;;;;;;3.85;0.75;;;;;;;21.58;27.17;96353.82;1768449;79;22321;-82
2021/05/10 08:07:31;;;;;;;1.20;0.72;;;;;;;21.61;27.80;96355.16;1802705;77;27979;-82
2021/05/10 08:10:08;;;;;;;2.30;0.90;;;;;;;21.82;27.62;96349.80;1834816;76;28013;-82
2021/05/10 08:12:41;;;;;;;1.77;0.70;;;;;;;21.99;26.84;96368.70;1763296;79;22593;-81
2021/05/10 08:15:19;;;;;;;1.10;0.50;;;;;;;22.13;25.43;96350.84;1845262;77;20122;-81
2021/05/10 08:17:52;;;;;;;1.55;0.70;;;;;;;22.21;26.59;96356.16;1783163;79;22579;-82
2021/05/10 08:20:26;;;;;;;1.10;0.70;;;;;;;22.34;28.48;96354.39;1821972;77;22400;-82
2021/05/10 08:23:02;;;;;;;1.45;0.75;;;;;;;22.45;27.26;96345.45;1800860;78;22915;-82
2021/05/10 08:25:39;;;;;;;1.20;0.80;;;;;;;22.64;27.54;96364.86;1775712;77;28093;-82
2021/05/10 08:28:16;;;;;;;1.22;0.80;;;;;;;22.74;26.22;96355.09;1834139;77;22403;-82
2021/05/10 08:30:50;;;;;;;1.37;0.70;;;;;;;22.88;27.07;96362.59;1755671;79;23048;-82
2021/05/10 08:33:27;;;;;;;0.90;0.70;;;;;;;22.99;27.00;96356.28;1783172;79;23086;-82
2021/05/10 08:36:05;;;;;;;1.25;0.62;;;;;;;23.14;27.36;96343.06;1792553;77;22435;-82
2021/05/10 08:38:41;;;;;;;2.10;0.80;;;;;;;23.27;26.11;96345.75;1821398;78;22557;-82
2021/05/10 08:41:16;;;;;;;1.32;0.50;;;;;;;23.37;26.95;96347.07;1796234;77;22357;-82
2021/05/10 08:43:50;;;;;;;1.22;0.72;;;;;;;23.51;26.84;96348.67;1780764;79;22558;-81
2021/05/10 08:46:27;;;;;;;1.05;0.62;;;;;;;23.59;24.60;96354.80;1804542;77;38437;-82
2021/05/10 08:49:01;;;;;;;0.88;0.55;;;;;;;23.68;25.89;96355.88;1774245;79;22228;-82
2021/05/10 08:51:38;;;;;;;1.30;0.70;;;;;;;23.74;25.65;96352.68;1813299;77;28231;-82
2021/05/10 08:54:26;;;;;;;1.22;0.57;;;;;;;23.86;26.28;96355.34;1842111;77;22604;-82
2021/05/10 08:57:04;;;;;;;1.47;0.62;;;;;;;23.90;26.25;96355.06;1761542;79;23144;-82
2021/05/10 08:59:42;;;;;;;2.40;0.95;;;;;;;24.00;26.63;96348.96;1810956;78;22180;-82
2021/05/10 09:02:33;;;;;;;0.70;0.50;;;;;;;24.11;26.19;96348.42;1825099;77;22929;-82
2021/05/10 09:05:15;;;;;;;2.22;0.78;;;;;;;24.12;25.53;96364.61;1817334;79;22608;-82
2021/05/10 09:08:06;;;;;;;1.95;0.80;;;;;;;24.13;25.67;96348.41;1754654;79;22446;-82
2021/05/10 09:10:41;;;;;;;1.85;0.70;;;;;;;24.20;26.46;96344.94;1766161;79;22934;-82
2021/05/10 09:13:23;;;;;;;2.40;0.62;;;;;;;24.34;26.53;96348.39;1778878;79;22423;-82
2021/05/10 09:16:02;;;;;;;3.17;0.80;;;;;;;24.41;26.30;96344.94;1779952;79;22315;-82
2021/05/10 09:18:42;;;;;;;2.10;0.60;;;;;;;24.50;26.22;96345.42;1779202;79;22446;-82
2021/05/10 09:21:27;;;;;;;1.02;0.65;;;;;;;24.57;25.80;96350.97;1821872;77;22376;-81
2021/05/10 09:24:21;;;;;;;1.62;0.55;;;;;;;24.63;26.05;96340.61;1755049;79;22326;-82
2021/05/10 09:26:57;;;;;;;0.88;0.50;;;;;;;24.68;24.81;96342.70;1782259;79;22461;-82
2021/05/10 09:29:34;;;;;;;1.15;0.60;;;;;;;24.74;26.29;96343.49;1799901;78;22658;-82
2021/05/10 09:32:28;;;;;;;1.72;0.70;;;;;;;24.77;26.01;96336.30;1783473;77;28153;-82
2021/05/10 09:35:22;;;;;;;1.57;0.70;;;;;;;24.81;26.20;96332.81;1769804;79;22422;-82
2021/05/10 09:38:23;;;;;;;1.05;0.62;;;;;;;24.91;26.07;96340.48;1754299;79;22651;-82
2021/05/10 09:41:04;;;;;;;1.92;0.50;;;;;;;24.99;26.78;96338.57;1800748;78;22435;-82
2021/05/10 09:43:39;;;;;;;0.78;0.47;;;;;;;25.01;25.96;96336.46;1783573;79;22933;-82
2021/05/10 09:46:13;;;;;;;3.22;0.93;;;;;;;25.06;26.39;96337.25;1811566;79;22885;-82
2021/05/10 09:48:50;;;;;;;1.30;0.70;;;;;;;25.14;26.40;96336.66;1842191;76;22300;-82
2021/05/10 09:51:46;;;;;;;2.52;0.75;;;;;;;25.24;26.20;96335.02;1782062;78;28306;-82
2021/05/10 09:54:25;;;;;;;2.52;0.75;;;;;;;25.37;26.21;96343.68;1804668;77;38513;-82
2021/05/10 09:57:04;;;;;;;1.17;0.50;;;;;;;25.57;26.21;96338.23;1759435;79;22904;-82
2021/05/10 09:59:37;;;;;;;2.17;0.53;;;;;;;25.65;25.45;96348.27;1774621;79;22514;-82
2021/05/10 10:02:34;;;;;;;1.70;0.60;;;;;;;25.70;25.41;96335.48;1821920;77;22451;-80
2021/05/10 10:05:10;;;;;;;1.00;0.62;;;;;;;25.66;25.41;96333.09;1818380;77;22700;-82
2021/05/10 10:07:48;;;;;;;0.78;0.55;;;;;;;25.60;24.01;96336.34;1827999;76;22536;-82
2021/05/10 10:10:25;;;;;;;0.95;0.50;;;;;;;25.60;24.65;96333.69;1843542;76;22193;-82
2021/05/10 10:12:58;;;;;;;1.32;0.70;;;;;;;25.60;25.63;96319.59;1819995;77;22692;-82
2021/05/10 10:15:35;;;;;;;1.27;0.60;;;;;;;25.55;25.10;96331.07;1827141;77;27979;-82
2021/05/10 10:18:11;;;;;;;1.82;0.72;;;;;;;25.57;25.28;96330.25;1759975;79;22107;-82
2021/05/10 10:20:45;;;;;;;2.20;0.55;;;;;;;25.51;24.67;96326.56;1782552;79;22441;-82
2021/05/10 10:23:24;;;;;;;1.30;0.80;;;;;;;25.39;26.19;96325.06;1760663;79;22750;-82
2021/05/10 10:25:59;;;;;;;2.08;0.60;;;;;;;25.42;25.89;96319.19;1821942;77;22391;-82
2021/05/10 10:28:33;;;;;;;3.50;0.80;;;;;;;25.51;25.09;96319.91;1844586;77;22220;-82
2021/05/10 10:31:20;;;;;;;1.00;0.50;;;;;;;25.62;25.77;96311.58;1818966;78;22498;-82
2021/05/10 10:34:02;;;;;;;1.37;0.65;;;;;;;25.86;25.79;96318.84;1760789;79;22846;-82
2021/05/10 10:36:48;;;;;;;1.12;0.70;;;;;;;26.05;25.56;96316.30;1833109;77;22375;-82
2021/05/10 10:39:24;;;;;;;0.72;0.42;;;;;;;26.14;25.58;96311.39;1827385;76;22289;-80
2021/05/10 10:42:12;;;;;;;0.65;0.50;;;;;;;26.26;26.09;96306.47;1768921;79;22575;-82
2021/05/10 10:45:01;;;;;;;1.05;0.40;;;;;;;26.37;24.70;96310.39;1760127;79;22462;-82
2021/05/10 10:48:00;;;;;;;1.82;0.60;;;;;;;26.42;23.23;96315.66;1780932;79;22374;-82
2021/05/10 10:50:38;;;;;;;0.75;0.40;;;;;;;26.34;24.31;96305.04;1797554;78;22495;-82
2021/05/10 10:53:12;;;;;;;0.70;0.50;;;;;;;26.49;25.54;96310.22;1822043;78;22587;-82
2021/05/10 10:55:53;;;;;;;1.47;0.50;;;;;;;26.59;23.77;96310.11;1842633;77;22196;-82
2021/05/10 10:58:31;;;;;;;2.47;0.88;;;;;;;26.69;24.23;96305.75;1814247;78;22852;-82
2021/05/10 11:01:23;;;;;;;1.77;0.98;;;;;;;26.78;23.99;96303.47;1819624;77;22268;-82
2021/05/10 11:04:11;;;;;;;2.27;0.60;;;;;;;26.86;23.94;96308.72;1816053;78;22607;-82
2021/05/10 11:06:49;;;;;;;1.90;0.50;;;;;;;26.94;23.78;96308.06;1815115;78;22444;-82
2021/05/10 11:09:49;;;;;;;1.80;0.40;;;;;;;26.82;22.83;96315.69;1819302;78;22952;-82
2021/05/10 11:12:49;;;;;;;3.20;2.10;;;;;;;26.67;23.63;96308.67;1768855;79;22882;-80
2021/05/10 11:15:42;;;;;;;2.35;0.95;;;;;;;26.79;23.59;96308.27;1804971;76;28174;-82
2021/05/10 11:18:47;;;;;;;1.00;0.60;;;;;;;26.99;23.18;96300.53;1756488;79;22831;-83
2021/05/10 11:21:32;;;;;;;2.70;0.65;;;;;;;27.12;23.19;96296.63;1764993;79;22512;-82
2021/05/10 11:24:12;;;;;;;2.12;0.40;;;;;;;27.25;22.01;96302.33;1817477;78;23036;-81
2021/05/10 11:26:51;;;;;;;0.93;0.50;;;;;;;27.26;22.02;96303.91;1762971;79;22329;-83
2021/05/10 11:29:34;;;;;;;1.80;0.68;;;;;;;27.03;22.61;96296.26;1822783;78;22736;-81
2021/05/10 11:32:26;;;;;;;2.35;0.60;;;;;;;26.85;23.07;96295.94;1819346;78;22568;-82
2021/05/10 11:35:27;;;;;;;1.80;0.50;;;;;;;26.75;23.08;96293.39;1804879;78;22455;-82
2021/05/10 11:38:05;;;;;;;3.42;0.95;;;;;;;26.56;22.72;96289.91;1789745;78;22355;-83
2021/05/10 11:40:41;;;;;;;0.80;0.50;;;;;;;26.38;23.81;96290.67;1762665;79;22437;-82
2021/05/10 11:43:17;;;;;;;2.67;0.73;;;;;;;26.22;22.90;96292.14;1809536;76;28307;-83
2021/05/10 11:45:53;;;;;;;1.20;0.60;;;;;;;26.23;22.95;96295.05;1806061;77;28525;-83
2021/05/10 11:48:41;;;;;;;1.65;0.50;;;;;;;26.27;22.67;96293.95;1815001;77;23695;-82
2021/05/10 11:51:21;;;;;;;2.02;0.50;;;;;;;26.17;23.21;96301.50;1790666;79;27994;-83
2021/05/10 11:54:02;;;;;;;1.32;0.50;;;;;;;26.22;22.68;96292.69;1818111;77;23025;-82
2021/05/10 11:56:41;;;;;;;1.25;0.70;;;;;;;26.17;22.78;96294.84;1781102;79;22188;-83
2021/05/10 11:59:42;;;;;;;0.88;0.68;;;;;;;26.18;24.03;96298.30;1775283;79;22689;-82
2021/05/10 12:02:28;;;;;;;2.42;0.53;;;;;;;26.15;24.23;96293.54;1777831;79;22343;-83
2021/05/10 12:05:07;;;;;;;1.10;0.80;;;;;;;26.16;25.03;96308.44;1820830;77;22448;-83
2021/05/10 12:07:42;;;;;;;1.87;0.60;;;;;;;26.16;24.23;96300.45;1760014;79;22254;-83
2021/05/10 12:10:16;;;;;;;1.00;0.60;;;;;;;26.19;24.54;96303.33;1781635;79;22136;-80
2021/05/10 12:12:53;;;;;;;0.50;0.40;;;;;;;26.18;24.59;96297.75;1794451;79;22292;-81
2021/05/10 12:15:31;;;;;;;0.72;0.42;;;;;;;26.18;24.89;96296.42;1810278;78;22374;-83
2021/05/10 12:18:06;;;;;;;0.75;0.45;;;;;;;26.25;25.11;96297.44;1778220;79;22125;-83
2021/05/10 12:20:43;;;;;;;0.62;0.40;;;;;;;26.36;25.15;96295.46;1779833;77;27914;-82
2021/05/10 12:23:19;;;;;;;1.00;0.30;;;;;;;26.46;24.84;96294.81;1766523;79;27993;-83
2021/05/10 12:25:55;;;;;;;1.30;0.50;;;;;;;26.57;25.71;96293.62;1745523;79;28319;-83
2021/05/10 12:28:31;;;;;;;0.68;0.50;;;;;;;26.67;24.50;96294.02;1832025;77;22230;-82
2021/05/10 12:31:10;;;;;;;1.27;0.40;;;;;;;26.69;23.94;96303.87;1790740;79;22327;-83
2021/05/10 12:33:48;;;;;;;1.30;0.40;;;;;;;26.68;23.79;96300.14;1763161;79;22446;-83
2021/05/10 12:36:26;;;;;;;0.98;0.75;;;;;;;26.72;23.38;96301.17;1794446;78;22430;-83
2021/05/10 12:39:13;;;;;;;0.82;0.40;;;;;;;26.85;23.59;96295.94;1821479;77;22401;-81
2021/05/10 12:41:50;;;;;;;1.50;0.40;;;;;;;26.88;23.68;96284.69;1820018;77;22454;-83
2021/05/10 12:44:25;;;;;;;1.52;0.60;;;;;;;26.97;23.67;96297.36;1781460;79;22591;-83
2021/05/10 12:46:59;;;;;;;1.40;0.80;;;;;;;26.97;24.16;96292.03;1795126;77;22704;-83
2021/05/10 12:49:44;;;;;;;1.37;0.40;;;;;;;27.01;25.26;96289.88;1820958;78;22330;-82
2021/05/10 12:52:21;;;;;;;1.90;0.70;;;;;;;27.22;23.60;96285.03;1754398;79;22592;-83
2021/05/10 12:54:57;;;;;;;8.85;5.15;;;;;;;27.40;23.45;96296.77;1847217;77;21636;-83
2021/05/10 12:57:31;;;;;;;13.50;8.65;;;;;;;27.44;23.55;96290.55;1777004;79;22730;-83
2021/05/10 13:00:09;;;;;;;2.40;1.25;;;;;;;27.48;23.05;96290.20;1789982;77;28028;-82
2021/05/10 13:02:45;;;;;;;1.50;0.62;;;;;;;27.48;21.95;96300.88;1823328;77;22843;-81
2021/05/10 13:05:38;;;;;;;1.20;0.50;;;;;;;27.42;22.74;96294.05;1781169;79;22349;-83
2021/05/10 13:08:11;;;;;;;1.47;0.50;;;;;;;27.23;22.00;96293.28;1820432;77;22671;-83
2021/05/10 13:10:45;;;;;;;0.95;0.40;;;;;;;27.26;22.26;96292.70;1837231;77;22930;-83
2021/05/10 13:13:19;;;;;;;1.22;0.60;;;;;;;27.26;22.87;96295.38;1850544;76;22403;-83
2021/05/10 13:16:00;;;;;;;1.52;0.90;;;;;;;27.32;22.50;96295.53;1782079;79;22186;-82
2021/05/10 13:18:48;;;;;;;3.67;2.20;;;;;;;27.37;22.19;96296.02;1755890;79;22999;-83
2021/05/10 13:32:40;;;;;;;1.00;0.50;;;;;;;27.66;23.41;96293.16;1744328;79;28095;-83
2021/05/10 13:35:20;;;;;;;1.15;0.37;;;;;;;27.72;22.12;96288.00;1780874;79;22418;-83
2021/05/10 13:38:04;;;;;;;1.42;0.50;;;;;;;27.72;22.84;96281.33;1850007;76;22997;-83
2021/05/10 13:40:38;;;;;;;1.45;0.40;;;;;;;27.71;23.59;96287.75;1823897;77;22572;-83
2021/05/10 13:45:50;;;;;;;1.15;0.53;;;;;;;27.59;22.46;96278.05;1754901;79;28084;-82
2021/05/10 13:48:27;;;;;;;0.50;0.33;;;;;;;27.60;22.66;96279.63;1825686;76;22308;-81
2021/05/10 13:51:03;;;;;;;1.15;0.33;;;;;;;27.51;23.84;96278.97;1820431;78;22264;-81
2021/05/10 13:53:40;;;;;;;2.90;0.30;;;;;;;27.42;22.84;96276.70;1760445;79;22769;-81
2021/05/10 13:56:18;;;;;;;2.10;0.60;;;;;;;27.39;22.75;96269.30;1820143;78;22548;-80
2021/05/10 13:58:56;;;;;;;2.23;0.50;;;;;;;27.49;22.18;96272.31;1749006;79;28126;-82
2021/05/10 14:01:30;;;;;;;2.02;0.62;;;;;;;27.64;21.83;96276.09;1778673;79;22868;-83
2021/05/10 14:04:08;;;;;;;0.95;0.55;;;;;;;27.60;21.99;96267.62;1821828;79;22429;-83
2021/05/10 14:06:44;;;;;;;1.57;0.50;;;;;;;27.74;21.72;96276.48;1792262;79;21787;-83
2021/05/10 14:09:21;;;;;;;1.67;0.57;;;;;;;27.87;22.17;96274.93;1802933;77;21626;-83
2021/05/10 14:11:57;;;;;;;0.90;0.40;;;;;;;27.92;21.78;96273.50;1755869;79;22328;-83
2021/05/10 14:14:33;;;;;;;1.02;0.35;;;;;;;28.01;21.40;96283.21;1817831;77;22298;-83
2021/05/10 14:17:10;;;;;;;0.82;0.40;;;;;;;28.19;23.07;96274.86;1815474;77;22480;-82
2021/05/10 14:19:46;;;;;;;1.22;0.50;;;;;;;28.32;21.72;96266.64;1819862;78;23042;-83
2021/05/10 14:22:23;;;;;;;1.72;0.50;;;;;;;28.34;22.46;96266.58;1792208;78;28370;-83
2021/05/10 14:24:59;;;;;;;1.20;0.40;;;;;;;28.42;20.72;96263.74;1817022;79;22263;-83
2021/05/10 14:27:36;;;;;;;0.70;0.50;;;;;;;28.43;21.34;96272.00;1798476;76;28073;-82
2021/05/10 14:30:11;;;;;;;0.45;0.40;;;;;;;28.54;20.65;96272.59;1800189;79;22747;-83
2021/05/10 14:32:48;;;;;;;1.10;0.50;;;;;;;28.43;20.60;96265.33;1819352;77;22315;-83
2021/05/10 14:35:24;;;;;;;2.02;0.60;;;;;;;28.36;20.84;96270.29;1828893;77;27980;-81
2021/05/10 14:38:00;;;;;;;2.05;0.40;;;;;;;28.42;20.35;96277.10;1755488;79;22347;-83
2021/05/10 14:40:36;;;;;;;1.45;0.60;;;;;;;28.30;20.43;96268.78;1786163;78;28392;-82
2021/05/10 14:43:13;;;;;;;2.35;0.50;;;;;;;28.29;19.95;96272.00;1755696;79;22446;-81
2021/05/10 14:45:50;;;;;;;1.00;0.40;;;;;;;28.30;20.76;96274.13;1821351;78;22838;-83
2021/05/10 14:48:30;;;;;;;0.60;0.40;;;;;;;28.34;20.65;96279.94;1845097;76;22185;-82
2021/05/10 14:51:04;;;;;;;1.12;0.45;;;;;;;28.36;20.73;96279.64;1825905;77;22245;-83
2021/05/10 14:53:41;;;;;;;0.88;0.60;;;;;;;28.28;20.24;96275.77;1821432;77;22261;-83
2021/05/10 14:56:17;;;;;;;1.57;0.60;;;;;;;28.18;19.95;96275.16;1834451;77;22497;-81
2021/05/10 14:58:51;;;;;;;1.40;0.50;;;;;;;28.05;20.50;96276.19;1792310;77;22314;-83
2021/05/10 15:01:27;;;;;;;1.15;0.60;;;;;;;28.00;20.50;96270.95;1805010;77;28080;-83
2021/05/10 15:04:04;;;;;;;1.55;0.50;;;;;;;28.02;21.25;96275.99;1812709;77;28041;-83
2021/05/10 15:06:37;;;;;;;1.10;0.30;;;;;;;28.03;20.47;96277.03;1826987;76;22524;-83
2021/05/10 15:09:14;;;;;;;1.55;0.65;;;;;;;27.80;20.18;96273.42;1803048;77;28002;-83
2021/05/10 15:11:47;;;;;;;1.62;0.60;;;;;;;27.72;20.84;96273.31;1800104;77;22403;-83
2021/05/10 15:14:25;;;;;;;4.62;3.22;;;;;;;27.45;20.70;96277.45;1792083;79;38313;-82
2021/05/10 15:16:59;;;;;;;1.95;0.72;;;;;;;27.36;21.82;96287.77;1820999;77;22789;-83
2021/05/10 15:19:33;;;;;;;1.22;0.70;;;;;;;27.15;21.61;96281.92;1832533;77;21938;-83
2021/05/10 15:22:08;;;;;;;2.17;0.80;;;;;;;26.84;21.45;96289.53;1755107;79;22879;-82
2021/05/10 15:24:43;;;;;;;3.45;1.67;;;;;;;26.47;22.19;96288.95;1817451;77;22782;-83
2021/05/10 15:27:20;;;;;;;1.07;0.80;;;;;;;26.11;22.27;96281.34;1798460;77;28204;-83
2021/05/10 15:29:54;;;;;;;1.42;0.60;;;;;;;25.96;22.65;96290.27;1780246;79;22421;-83
2021/05/10 15:32:28;;;;;;;2.58;0.72;;;;;;;25.65;22.88;96284.41;1821090;77;22780;-83
2021/05/10 15:35:05;;;;;;;1.80;0.85;;;;;;;25.40;23.56;96283.31;1819538;79;22526;-83
2021/05/10 15:37:43;;;;;;;2.22;0.90;;;;;;;25.22;23.55;96286.61;1758183;79;22898;-81
2021/05/10 15:40:19;;;;;;;1.40;0.60;;;;;;;25.04;24.09;96286.20;1812647;79;22458;-83
2021/05/10 15:42:56;;;;;;;1.42;0.70;;;;;;;24.85;24.13;96290.53;1822384;77;22542;-82
2021/05/10 15:45:32;;;;;;;1.00;0.70;;;;;;;24.71;24.30;96285.03;1772336;79;22434;-82
2021/05/10 15:48:08;;;;;;;1.77;0.75;;;;;;;24.66;24.37;96293.56;1847969;76;28059;-83
2021/05/10 15:50:45;;;;;;;2.02;0.90;;;;;;;24.64;24.68;96297.03;1772991;77;28121;-83
2021/05/10 15:53:19;;;;;;;1.52;0.60;;;;;;;24.67;24.53;96286.64;1782030;79;23022;-83
2021/05/10 15:55:53;;;;;;;1.52;0.70;;;;;;;24.64;24.53;96295.70;1805278;77;22469;-83
2021/05/10 15:58:30;;;;;;;1.70;0.82;;;;;;;24.58;24.42;96290.95;1844561;77;22318;-83
2021/05/10 16:01:03;;;;;;;1.02;0.70;;;;;;;24.70;24.96;96286.63;1832637;78;22655;-83
2021/05/10 16:03:40;;;;;;;1.42;0.85;;;;;;;24.96;25.05;96286.77;1779940;77;27911;-83
2021/05/10 16:06:15;;;;;;;1.10;0.50;;;;;;;25.27;24.68;96280.73;1808492;77;22174;-83
2021/05/10 16:08:51;;;;;;;1.92;0.80;;;;;;;25.49;25.39;96281.63;1823032;77;22509;-83
2021/05/10 16:11:25;;;;;;;2.22;0.72;;;;;;;25.65;24.38;96283.08;1827228;78;22337;-84
2021/05/10 16:13:58;;;;;;;1.40;0.88;;;;;;;25.72;24.28;96276.15;1815397;77;22800;-84
2021/05/10 16:16:33;;;;;;;1.98;1.00;;;;;;;25.83;25.11;96281.61;1815115;77;22200;-84
2021/05/10 16:19:08;;;;;;;1.47;0.80;;;;;;;25.90;22.85;96283.96;1808972;77;22402;-84
2021/05/10 16:21:42;;;;;;;2.00;0.78;;;;;;;25.91;24.06;96294.33;1760338;79;23181;-84
2021/05/10 16:24:18;;;;;;;1.77;0.90;;;;;;;25.97;23.69;96295.05;1818323;77;27960;-84
2021/05/10 16:26:54;;;;;;;1.60;0.88;;;;;;;26.25;24.50;96292.90;1778739;79;22605;-84
2021/05/10 16:29:31;;;;;;;2.33;0.90;;;;;;;26.44;24.00;96291.64;1803758;79;28222;-84
2021/05/10 16:32:08;;;;;;;2.08;0.88;;;;;;;26.70;24.25;96292.14;1819737;78;22600;-82
2021/05/10 16:34:47;;;;;;;2.80;0.80;;;;;;;26.76;23.87;96292.85;1771152;79;22550;-84
2021/05/10 16:37:27;;;;;;;1.45;0.75;;;;;;;26.83;24.52;96298.06;1798729;77;22350;-83
2021/05/10 16:40:04;;;;;;;2.27;0.98;;;;;;;26.83;23.46;96295.41;1838451;77;22521;-84
2021/05/10 16:42:41;;;;;;;1.32;0.72;;;;;;;26.84;24.45;96301.53;1816442;77;22361;-84
2021/05/10 16:45:16;;;;;;;1.60;0.88;;;;;;;26.85;24.52;96304.47;1797081;78;22664;-85
2021/05/10 16:47:53;;;;;;;1.40;0.80;;;;;;;26.93;24.00;96295.81;1829009;77;38493;-82
2021/05/10 16:50:29;;;;;;;1.72;1.05;;;;;;;27.03;23.91;96295.72;1821867;77;28348;-82
2021/05/10 16:53:03;;;;;;;1.60;0.85;;;;;;;26.98;24.12;96291.73;1795483;79;23246;-82
2021/05/10 16:55:38;;;;;;;1.95;0.88;;;;;;;26.72;23.83;96298.51;1782213;79;22880;-85
2021/05/10 16:58:15;;;;;;;2.95;1.30;;;;;;;26.43;23.75;96294.59;1782672;77;28374;-82
2021/05/10 17:00:50;;;;;;;2.08;1.15;;;;;;;26.29;24.00;96297.91;1781675;79;22283;-84
2021/05/10 17:03:27;;;;;;;2.17;1.12;;;;;;;26.06;24.46;96300.03;1829822;76;38552;-82
2021/05/10 17:06:02;;;;;;;1.85;1.05;;;;;;;25.99;24.29;96292.36;1769345;79;22387;-83
2021/05/10 17:08:39;;;;;;;3.33;1.17;;;;;;;25.84;24.23;96301.83;1838273;77;22267;-85
2021/05/10 17:11:16;;;;;;;2.98;1.60;;;;;;;25.60;24.75;96300.96;1790545;77;27981;-82
2021/05/10 17:13:53;;;;;;;2.45;1.05;;;;;;;25.58;25.48;96305.77;1759870;79;22714;-84
2021/05/10 17:16:33;;;;;;;2.62;1.20;;;;;;;25.38;25.40;96306.20;1827873;77;22416;-84
2021/05/10 17:19:10;;;;;;;2.00;1.10;;;;;;;25.24;25.65;96299.91;1815172;78;22525;-84
2021/05/10 17:21:44;;;;;;;2.15;1.10;;;;;;;25.13;25.88;96309.81;1827995;76;23243;-85
2021/05/10 17:24:19;;;;;;;1.98;1.10;;;;;;;25.04;26.33;96315.44;1794353;77;28286;-84
2021/05/10 17:26:53;;;;;;;3.02;1.15;;;;;;;25.15;26.40;96317.51;1760491;79;22782;-84
2021/05/10 17:29:30;;;;;;;2.40;1.20;;;;;;;25.29;26.38;96313.16;1828406;77;27966;-84
2021/05/10 17:32:06;;;;;;;2.50;1.60;;;;;;;25.70;26.19;96315.52;1802576;77;28103;-85
2021/05/10 17:34:42;;;;;;;2.60;1.27;;;;;;;26.08;26.06;96318.39;1818557;78;22456;-84
2021/05/10 17:37:20;;;;;;;2.77;1.40;;;;;;;26.12;26.00;96314.88;1828906;77;27992;-84
2021/05/10 17:39:57;;;;;;;2.22;1.22;;;;;;;26.46;25.84;96323.33;1812712;77;22251;-84
2021/05/10 17:42:34;;;;;;;1.90;1.22;;;;;;;26.40;26.14;96321.81;1820332;79;22168;-84
2021/05/10 17:45:11;;;;;;;2.17;1.50;;;;;;;26.33;26.75;96332.22;1799340;78;28037;-84
2021/05/10 17:47:47;;;;;;;3.33;1.70;;;;;;;26.44;27.17;96331.61;1843721;77;21923;-83
2021/05/10 17:50:23;;;;;;;2.85;1.60;;;;;;;26.23;27.25;96333.67;1779691;77;28053;-84
2021/05/10 17:52:59;;;;;;;3.70;2.45;;;;;;;26.21;28.03;96333.17;1749579;79;28204;-84
2021/05/10 17:55:37;;;;;;;3.05;1.65;;;;;;;26.16;28.20;96339.86;1810669;79;22366;-84
2021/05/10 17:58:13;;;;;;;3.58;2.02;;;;;;;25.73;29.01;96345.59;1818751;78;22355;-85
2021/05/10 18:01:00;;;;;;;2.77;1.52;;;;;;;25.33;29.65;96347.97;1808564;78;23277;-84
2021/05/10 18:03:32;;;;;;;3.10;1.70;;;;;;;24.90;30.03;96358.30;1760491;79;22584;-84
2021/05/10 18:06:08;;;;;;;2.65;1.90;;;;;;;24.50;30.41;96358.70;1828201;77;28248;-84
2021/05/10 18:08:42;;;;;;;2.85;2.10;;;;;;;24.17;30.02;96356.63;1827447;77;22349;-84
2021/05/10 18:11:19;;;;;;;3.22;1.70;;;;;;;23.79;30.76;96348.72;1803281;79;38360;-84
2021/05/10 18:13:52;;;;;;;4.22;2.37;;;;;;;23.60;31.02;96358.54;1760930;79;23067;-84
2021/05/10 18:16:32;;;;;;;4.20;3.37;;;;;;;23.15;31.03;96360.56;1809355;77;22612;-84
2021/05/10 18:19:12;;;;;;;7.22;5.28;;;;;;;22.70;31.34;96365.14;1839133;77;22342;-84
2021/05/10 18:21:45;;;;;;;4.50;2.65;;;;;;;22.32;31.85;96363.64;1758500;79;22245;-84
2021/05/10 18:24:21;;;;;;;2.98;2.30;;;;;;;22.03;32.31;96364.48;1804133;78;28124;-84
2021/05/10 18:26:54;;;;;;;2.92;1.40;;;;;;;21.95;33.17;96366.27;1759505;79;22343;-84
2021/05/10 18:29:31;;;;;;;4.00;1.67;;;;;;;21.72;33.52;96366.90;1802861;77;28028;-84
2021/05/10 18:32:08;;;;;;;2.75;1.90;;;;;;;21.62;33.48;96371.30;1793753;78;28392;-84
2021/05/10 18:34:45;;;;;;;3.90;1.80;;;;;;;21.54;34.13;96372.56;1793436;77;28132;-84
2021/05/10 18:39:57;;;;;;;3.30;1.87;;;;;;;21.09;34.85;96382.92;1793885;77;28093;-84
2021/05/10 18:42:33;;;;;;;3.08;1.98;;;;;;;20.97;35.06;96383.57;1800990;79;28416;-84
2021/05/10 18:45:13;;;;;;;2.85;1.80;;;;;;;20.85;35.19;96386.36;1818516;77;22686;-84
2021/05/10 18:47:51;;;;;;;3.05;2.10;;;;;;;20.57;35.70;96381.25;1764726;79;22838;-84
2021/05/10 18:50:45;;;;;;;3.70;2.00;;;;;;;20.32;36.19;96385.10;1817731;77;23103;-83
2021/05/10 18:53:21;;;;;;;2.65;1.62;;;;;;;20.09;36.40;96386.11;1842942;77;22393;-84
2021/05/10 18:55:59;;;;;;;2.70;1.85;;;;;;;19.92;36.47;96381.88;1799428;78;22603;-84
2021/05/10 18:58:34;;;;;;;2.95;2.30;;;;;;;19.74;37.35;96379.77;1815963;77;28141;-84
2021/05/10 19:01:11;;;;;;;3.35;2.40;;;;;;;19.72;37.60;96380.53;1834808;76;28036;-84
2021/05/10 19:03:52;;;;;;;3.73;2.27;;;;;;;19.70;37.99;96387.88;1804828;77;32022;-84
2021/05/10 19:06:25;;;;;;;3.12;1.87;;;;;;;19.71;37.83;96390.00;1816487;78;22790;-84
2021/05/10 19:09:03;;;;;;;7.75;1.92;;;;;;;19.50;37.83;96389.60;1846079;76;22177;-84
2021/05/10 19:11:39;;;;;;;3.50;2.17;;;;;;;19.30;38.28;96393.20;1814710;78;22238;-84
2021/05/10 19:14:13;;;;;;;2.40;1.87;;;;;;;19.12;38.89;96390.25;1760401;79;22572;-84
2021/05/10 19:16:50;;;;;;;3.52;1.80;;;;;;;18.95;38.91;96394.66;1810825;77;22931;-82
2021/05/10 19:19:24;;;;;;;3.80;1.62;;;;;;;18.85;38.99;96397.08;1834608;77;22739;-82
2021/05/10 19:22:01;;;;;;;2.83;1.77;;;;;;;18.77;39.09;96401.41;1792073;77;38762;-82
2021/05/10 19:24:35;;;;;;;2.60;1.80;;;;;;;18.77;39.36;96402.73;1835058;77;22543;-82
2021/05/10 19:27:12;;;;;;;3.60;1.60;;;;;;;18.65;39.97;96400.62;1823246;77;22776;-83
2021/05/10 19:29:54;;;;;;;2.80;1.87;;;;;;;18.52;40.25;96397.69;1788334;77;28334;-82
2021/05/10 19:32:26;;;;;;;3.98;1.55;;;;;;;18.52;40.40;96396.37;1756109;79;23060;-82
2021/05/10 19:35:02;;;;;;;3.72;1.40;;;;;;;18.38;40.70;96394.50;1769963;79;22464;-82
2021/05/10 19:37:38;;;;;;;1.77;1.02;;;;;;;18.24;40.36;96395.80;1846296;76;22190;-82
2021/05/10 19:40:13;;;;;;;2.62;1.45;;;;;;;18.13;40.95;96393.95;1772481;79;22646;-82
2021/05/10 19:42:50;;;;;;;1.77;1.40;;;;;;;18.04;41.37;96396.11;1811695;77;23282;-82
2021/05/10 19:45:35;;;;;;;3.72;1.52;;;;;;;17.95;41.49;96396.18;1829035;77;28089;-82
2021/05/10 19:48:24;;;;;;;3.83;1.40;;;;;;;17.99;41.50;96397.31;1829930;77;22882;-82
2021/05/10 19:59:35;;;;;;;4.20;1.40;;;;;;;17.68;42.24;96397.90;1790388;78;22347;-82
2021/05/10 20:02:13;;;;;;;2.60;1.12;;;;;;;17.59;42.68;96391.36;1835519;77;22706;-82
2021/05/10 20:04:44;;;;;;;2.05;1.52;;;;;;;17.52;42.69;96387.21;1822526;78;22334;-82
2021/05/10 20:07:20;;;;;;;2.83;1.70;;;;;;;17.45;42.96;96391.27;1824822;76;28011;-82
2021/05/10 20:09:57;;;;;;;2.33;1.40;;;;;;;17.51;42.56;96391.67;1794576;77;27979;-82
2021/05/10 20:12:33;;;;;;;2.15;1.40;;;;;;;17.60;42.81;96383.77;1803614;77;28229;-82
2021/05/10 20:15:08;;;;;;;2.37;1.50;;;;;;;17.69;42.95;96381.63;1797425;78;22614;-82
2021/05/10 20:17:44;;;;;;;2.85;1.10;;;;;;;17.59;43.01;96385.30;1765395;79;22914;-82
2021/05/10 20:20:21;;;;;;;2.45;1.50;;;;;;;17.48;43.18;96382.92;1802879;79;28025;-82
2021/05/10 20:22:57;;;;;;;2.70;1.62;;;;;;;17.51;43.46;96379.05;1822572;78;22944;-82
2021/05/10 20:25:34;;;;;;;3.25;1.60;;;;;;;17.49;43.22;96377.16;1801599;79;28161;-82
2021/05/10 20:28:08;;;;;;;2.58;1.30;;;;;;;17.56;42.54;96376.02;1834525;77;22669;-82
2021/05/10 20:30:44;;;;;;;2.42;1.40;;;;;;;17.56;41.89;96370.77;1801941;77;22210;-82
2021/05/10 20:33:21;;;;;;;4.30;1.57;;;;;;;17.67;41.43;96377.08;1818315;77;22283;-82